Time;durP1;ratioP1;P1;durP2;ratioP2;P2;SDS_P1;SDS_P2;PMS_P1;PMS_P2;Temp;Humidity;BMP_temperature;BMP_pressure;BME280_temperature;BME280_humidity;BME280_pressure;Samples;Min_cycle;Max_cycle;Signal;HPM_P1;HPM_P2
2024/04/02 08:03:56;;;;;;;;;;;;;;;5.06;100.00;99051.00;4835152;29;19939;-79
2024/04/02 08:06:22;;;;;;;;;;;;;;;5.13;100.00;99046.38;4838989;29;20027;-82
2024/04/02 08:08:48;;;;;;;;;;;;;;;5.09;100.00;99053.50;4822924;29;19933;-80
2024/04/02 08:11:14;;;;;;;;;;;;;;;5.08;100.00;99044.75;4838986;29;19935;-80
2024/04/02 08:13:39;;;;;;;;;;;;;;;5.12;100.00;99045.50;4841064;29;19924;-82
2024/04/02 08:16:04;;;;;;;;;;;;;;;5.12;100.00;99056.00;4838402;29;19924;-79
2024/04/02 08:18:30;;;;;;;;;;;;;;;5.12;100.00;99053.38;4840308;29;19920;-81
2024/04/02 08:20:55;;;;;;;;;;;;;;;5.11;100.00;99048.22;4835363;29;19932;-82
2024/04/02 08:23:28;;;;;;;;;;;;;;;5.17;100.00;99054.13;4840924;29;19950;-89
2024/04/02 08:25:53;;;;;;;;;;;;;;;5.06;100.00;99062.34;4842077;29;19920;-86
2024/04/02 08:28:20;;;;;;;;;;;;;;;5.12;100.00;99056.00;4844337;29;19924;-87
2024/04/02 08:30:46;;;;;;;;;;;;;;;5.16;100.00;99062.91;4842310;29;19936;-82
2024/04/02 08:33:11;;;;;;;;;;;;;;;5.22;100.00;99072.38;4842490;29;20296;-81
2024/04/02 08:35:36;;;;;;;;;;;;;;;5.23;100.00;99074.94;4844470;29;19930;-84
2024/04/02 08:38:01;;;;;;;;;;;;;;;9.55;100.00;99073.13;4844830;29;20361;-84
2024/04/02 08:40:30;;;;;;;;;;;;;;;9.40;100.00;99058.06;4845567;29;20441;-83
2024/04/02 08:43:46;;;;;;;;;;;;;;;6.12;100.00;99072.84;4844007;29;19967;-91
2024/04/02 08:46:11;;;;;;;;;;;;;;;5.02;100.00;99083.50;4827807;29;20376;-84
2024/04/02 08:48:37;;;;;;;;;;;;;;;4.62;100.00;99087.34;4844349;29;19931;-83
2024/04/02 08:51:05;;;;;;;;;;;;;;;4.35;100.00;99082.81;4844095;29;19925;-84
2024/04/02 08:53:33;;;;;;;;;;;;;;;4.17;100.00;99094.72;4842842;29;19921;-96
2024/04/02 08:55:59;;;;;;;;;;;;;;;4.16;100.00;99079.00;4843992;29;19928;-82
2024/04/02 08:58:25;;;;;;;;;;;;;;;4.01;100.00;99098.66;4827445;29;19920;-83
2024/04/02 09:00:51;;;;;;;;;;;;;;;3.86;100.00;99097.31;4842726;29;19924;-82
2024/04/02 09:03:16;;;;;;;;;;;;;;;3.82;100.00;99093.91;4841884;29;19925;-82
2024/04/02 09:05:41;;;;;;;;;;;;;;;4.13;100.00;99102.69;4843575;29;19967;-84
2024/04/02 09:08:09;;;;;;;;;;;;;;;4.55;100.00;99110.28;4843612;29;20393;-82
2024/04/02 09:10:35;;;;;;;;;;;;;;;4.65;100.00;99108.25;4843570;29;19933;-83
2024/04/02 09:13:00;;;;;;;;;;;;;;;4.73;100.00;99108.88;4843729;29;20336;-83
2024/04/02 09:15:26;;;;;;;;;;;;;;;4.79;100.00;99106.06;4843064;29;19960;-84
2024/04/02 09:17:51;;;;;;;;;;;;;;;4.90;100.00;99108.38;4843064;29;19925;-87
2024/04/02 09:20:16;;;;;;;;;;;;;;;4.90;100.00;99109.22;4827055;29;20345;-84
2024/04/02 09:22:42;;;;;;;;;;;;;;;4.95;100.00;99106.47;4843605;29;19925;-84
2024/04/02 09:25:09;;;;;;;;;;;;;;;5.03;100.00;99108.84;4843384;29;20439;-82
2024/04/02 09:27:34;;;;;;;;;;;;;;;5.03;100.00;99108.84;4842860;29;19927;-85
2024/04/02 09:30:00;;;;;;;;;;;;;;;5.14;100.00;99119.00;4843459;29;19924;-87
2024/04/02 09:32:25;;;;;;;;;;;;;;;5.23;100.00;99118.72;4842196;29;19921;-88
2024/04/02 09:34:52;;;;;;;;;;;;;;;5.17;100.00;99121.53;4843154;29;19921;-86
2024/04/02 09:37:30;;;;;;;;;;;;;;;5.27;100.00;99122.97;4842760;29;19943;-87
2024/04/02 09:39:56;;;;;;;;;;;;;;;5.35;100.00;99139.34;4841886;29;20042;-91
2024/04/02 09:42:21;;;;;;;;;;;;;;;5.41;100.00;99138.31;4827041;29;20031;-83
2024/04/02 09:44:49;;;;;;;;;;;;;;;5.34;100.00;99140.25;4841520;29;20384;-87
2024/04/02 09:47:15;;;;;;;;;;;;;;;5.39;100.00;99142.72;4841828;29;20392;-86
2024/04/02 09:49:42;;;;;;;;;;;;;;;5.38;100.00;99143.66;4842713;29;19920;-85
2024/04/02 09:52:07;;;;;;;;;;;;;;;5.34;100.00;99142.88;4841459;29;20502;-83
2024/04/02 09:54:33;;;;;;;;;;;;;;;5.38;100.00;99138.41;4842828;29;20008;-81
2024/04/02 09:57:02;;;;;;;;;;;;;;;5.38;100.00;99135.78;4826565;29;19928;-86
2024/04/02 09:59:28;;;;;;;;;;;;;;;5.38;100.00;99141.88;4841706;29;20356;-82
2024/04/02 10:01:54;;;;;;;;;;;;;;;5.42;100.00;99148.75;4841675;29;19932;-85
2024/04/02 10:04:22;;;;;;;;;;;;;;;5.45;100.00;99153.91;4825873;29;19940;-85
2024/04/02 10:06:48;;;;;;;;;;;;;;;5.44;100.00;99151.31;4841933;29;19925;-83
2024/04/02 10:09:15;;;;;;;;;;;;;;;5.45;100.00;99151.28;4841347;29;19925;-83
2024/04/02 10:11:41;;;;;;;;;;;;;;;5.43;100.00;99147.00;4841532;29;19964;-85
2024/04/02 10:14:11;;;;;;;;;;;;;;;5.44;100.00;99153.94;4842660;29;19920;-88
2024/04/02 10:16:43;;;;;;;;;;;;;;;5.39;100.00;99151.50;4828772;29;19972;-83
2024/04/02 10:19:28;;;;;;;;;;;;;;;6.76;100.00;99150.34;4842759;29;20007;-83
2024/04/02 10:21:53;;;;;;;;;;;;;;;5.98;100.00;99150.47;4842780;29;19921;-85
2024/04/02 10:24:22;;;;;;;;;;;;;;;5.68;100.00;99140.94;4840021;29;19943;-85
2024/04/02 10:26:51;;;;;;;;;;;;;;;5.61;100.00;99142.91;4826282;29;20011;-91
2024/04/02 10:29:27;;;;;;;;;;;;;;;5.59;100.00;99142.94;4839497;29;19925;-83
2024/04/02 10:31:52;;;;;;;;;;;;;;;5.55;100.00;99150.97;4840802;29;19927;-84
2024/04/02 10:34:18;;;;;;;;;;;;;;;5.55;100.00;99141.34;4841289;29;19933;-83
2024/04/02 10:36:43;;;;;;;;;;;;;;;8.41;100.00;99144.53;4842836;29;19970;-85
2024/04/02 10:39:12;;;;;;;;;;;;;;;6.40;100.00;99146.38;4842479;29;19956;-90
2024/04/02 10:41:38;;;;;;;;;;;;;;;5.95;100.00;99139.13;4840664;29;19981;-85
2024/04/02 10:44:04;;;;;;;;;;;;;;;5.80;100.00;99144.00;4839706;29;19928;-82
2024/04/02 10:46:29;;;;;;;;;;;;;;;5.83;100.00;99141.28;4839453;29;19931;-82
2024/04/02 10:48:58;;;;;;;;;;;;;;;5.73;100.00;99141.66;4840880;29;19920;-83
2024/04/02 10:51:24;;;;;;;;;;;;;;;5.78;100.00;99150.25;4840772;29;19921;-83
2024/04/02 10:53:52;;;;;;;;;;;;;;;5.83;100.00;99143.91;4841642;29;20015;-85
2024/04/02 10:56:18;;;;;;;;;;;;;;;5.79;100.00;99149.31;4840493;29;19975;-84
2024/04/02 10:58:43;;;;;;;;;;;;;;;5.79;100.00;99151.94;4840145;29;19927;-85
2024/04/02 11:01:09;;;;;;;;;;;;;;;5.88;100.00;99151.63;4840111;29;19924;-85
2024/04/02 11:03:34;;;;;;;;;;;;;;;5.81;100.00;99152.78;4825162;29;19928;-84
2024/04/02 11:06:00;;;;;;;;;;;;;;;5.87;100.00;99160.47;4841357;29;20460;-84
2024/04/02 11:08:25;;;;;;;;;;;;;;;5.83;100.00;99153.56;4841463;29;20389;-87
2024/04/02 11:10:51;;;;;;;;;;;;;;;5.86;100.00;99148.22;4841534;29;19954;-85
2024/04/02 11:13:25;;;;;;;;;;;;;;;5.84;100.00;99155.28;4841591;29;19927;-83
2024/04/02 11:15:51;;;;;;;;;;;;;;;5.83;100.00;99156.19;4840226;29;19963;-84
2024/04/02 11:18:23;;;;;;;;;;;;;;;5.87;100.00;99149.06;4841744;29;19963;-84
2024/04/02 11:20:49;;;;;;;;;;;;;;;5.90;100.00;99149.81;4841287;29;19971;-84
2024/04/02 11:26:12;;;;;;;;;;;;;;;5.97;100.00;99161.88;4841367;29;19936;-87
2024/04/02 11:28:37;;;;;;;;;;;;;;;5.96;100.00;99154.00;4841340;29;19935;-84
2024/04/02 11:31:03;;;;;;;;;;;;;;;5.91;100.00;99164.69;4838380;29;20110;-84
2024/04/02 11:33:31;;;;;;;;;;;;;;;5.88;100.00;99162.16;4840856;29;19929;-84
2024/04/02 11:35:56;;;;;;;;;;;;;;;5.91;100.00;99154.16;4841401;29;19920;-83
2024/04/02 11:38:27;;;;;;;;;;;;;;;5.97;100.00;99155.78;4841082;29;19932;-90
2024/04/02 11:41:21;;;;;;;;;;;;;;;5.93;100.00;99159.38;4841253;29;19921;-91
2024/04/02 11:43:49;;;;;;;;;;;;;;;5.94;100.00;99158.47;4840625;29;19959;-88
2024/04/02 11:46:14;;;;;;;;;;;;;;;5.96;100.00;99146.13;4823881;29;19920;-84
2024/04/02 11:48:40;;;;;;;;;;;;;;;5.94;100.00;99155.84;4841249;29;19931;-83
2024/04/02 11:51:05;;;;;;;;;;;;;;;5.91;100.00;99156.78;4840674;29;19954;-85
2024/04/02 11:53:30;;;;;;;;;;;;;;;5.90;100.00;99155.06;4840771;29;19929;-83
2024/04/02 11:55:58;;;;;;;;;;;;;;;6.00;100.00;99160.94;4841340;29;19920;-83
2024/04/02 12:01:07;;;;;;;;;;;;;;;5.90;100.00;99152.44;4844168;29;19994;-84
2024/04/02 12:03:32;;;;;;;;;;;;;;;5.85;100.00;99162.25;4837054;29;19924;-84
2024/04/02 12:05:58;;;;;;;;;;;;;;;5.86;100.00;99163.97;4834850;29;19975;-82
2024/04/02 12:08:24;;;;;;;;;;;;;;;5.88;100.00;99148.16;4835227;29;20325;-86
2024/04/02 12:10:49;;;;;;;;;;;;;;;5.85;100.00;99149.09;4818833;29;20095;-83
2024/04/02 12:13:14;;;;;;;;;;;;;;;5.96;100.00;99154.91;4835979;29;19925;-87
2024/04/02 12:15:49;;;;;;;;;;;;;;;5.98;100.00;99137.31;4832893;29;20330;-89
2024/04/02 12:18:14;;;;;;;;;;;;;;;5.92;100.00;99155.00;4834124;29;19925;-84
2024/04/02 12:20:39;;;;;;;;;;;;;;;5.93;100.00;99147.06;4835711;29;19927;-85
2024/04/02 12:23:05;;;;;;;;;;;;;;;5.99;100.00;99144.28;4817581;29;19932;-85
2024/04/02 12:25:33;;;;;;;;;;;;;;;5.96;100.00;99151.38;4835242;29;20019;-88
2024/04/02 12:27:59;;;;;;;;;;;;;;;5.94;100.00;99147.97;4834744;29;19929;-86
2024/04/02 12:30:24;;;;;;;;;;;;;;;5.93;100.00;99154.97;4819060;29;20404;-90
2024/04/02 12:32:49;;;;;;;;;;;;;;;5.92;100.00;99181.31;4833786;29;19978;-84
2024/04/02 12:35:17;;;;;;;;;;;;;;;5.92;100.00;99186.56;4833693;29;19981;-85
2024/04/02 12:37:43;;;;;;;;;;;;;;;6.02;100.00;99181.91;4835158;29;19932;-85
2024/04/02 12:40:11;;;;;;;;;;;;;;;6.06;100.00;99181.75;4832734;29;19928;-85
2024/04/02 12:42:37;;;;;;;;;;;;;;;5.97;100.00;99182.91;4833881;29;20385;-84
2024/04/02 12:45:03;;;;;;;;;;;;;;;5.95;100.00;99179.47;4834184;29;20011;-85
2024/04/02 12:47:29;;;;;;;;;;;;;;;5.84;100.00;99181.59;4833634;29;20293;-84
2024/04/02 12:49:54;;;;;;;;;;;;;;;5.83;100.00;99175.44;4834956;29;19929;-84
2024/04/02 12:52:19;;;;;;;;;;;;;;;5.85;100.00;99178.03;4833942;29;19925;-85
2024/04/02 12:54:53;;;;;;;;;;;;;;;5.82;100.00;99173.75;4817700;29;19997;-92
2024/04/02 12:57:19;;;;;;;;;;;;;;;5.82;100.00;99164.97;4818241;29;19929;-84
2024/04/02 12:59:44;;;;;;;;;;;;;;;5.82;100.00;99171.13;4817991;29;19928;-84
2024/04/02 13:02:09;;;;;;;;;;;;;;;5.85;100.00;99167.50;4834694;29;20373;-84
2024/04/02 13:04:40;;;;;;;;;;;;;;;5.87;100.00;99159.56;4843128;29;19968;-88
2024/04/02 13:07:05;;;;;;;;;;;;;;;5.85;100.00;99157.00;4841573;29;19982;-85
2024/04/02 13:09:31;;;;;;;;;;;;;;;5.94;100.00;99146.19;4842005;29;20361;-83
2024/04/02 13:11:58;;;;;;;;;;;;;;;5.96;100.00;99154.91;4842573;29;19924;-87
2024/04/02 13:14:24;;;;;;;;;;;;;;;5.92;100.00;99158.53;4827503;29;19928;-86
2024/04/02 13:16:49;;;;;;;;;;;;;;;5.93;100.00;99164.63;4841811;29;20275;-89
2024/04/02 13:19:15;;;;;;;;;;;;;;;5.92;100.00;99165.53;4844694;29;20366;-83
2024/04/02 13:21:40;;;;;;;;;;;;;;;5.99;100.00;99190.75;4841830;29;19981;-86
2024/04/02 13:24:07;;;;;;;;;;;;;;;6.02;100.00;99171.41;4843808;29;19920;-87
2024/04/02 13:26:32;;;;;;;;;;;;;;;6.06;100.00;99173.00;4826336;29;19929;-83
2024/04/02 13:28:58;;;;;;;;;;;;;;;6.03;100.00;99176.59;4842112;29;20015;-87
2024/04/02 13:31:32;;;;;;;;;;;;;;;6.02;100.00;99171.41;4840703;29;19924;-91
2024/04/02 13:34:10;;;;;;;;;;;;;;;6.00;100.00;99164.41;4843787;29;19924;-88
2024/04/02 13:36:36;;;;;;;;;;;;;;;5.98;100.00;99160.09;4842328;29;19921;-84
2024/04/02 13:39:01;;;;;;;;;;;;;;;6.03;100.00;99162.56;4826863;29;19924;-84
2024/04/02 13:41:26;;;;;;;;;;;;;;;5.99;100.00;99143.41;4826370;29;20003;-84
2024/04/02 13:43:52;;;;;;;;;;;;;;;6.06;100.00;99160.69;4842661;29;19928;-82
2024/04/02 13:46:25;;;;;;;;;;;;;;;6.10;100.00;99161.47;4826121;29;20098;-91
2024/04/02 13:48:52;;;;;;;;;;;;;;;6.06;100.00;99146.69;4843225;29;19932;-85
2024/04/02 13:51:18;;;;;;;;;;;;;;;6.11;100.00;99140.38;4823094;29;19927;-84
2024/04/02 13:53:45;;;;;;;;;;;;;;;6.11;100.00;99134.22;4843383;29;20007;-85
2024/04/02 13:56:13;;;;;;;;;;;;;;;6.06;100.00;99146.69;4840981;29;20158;-84
2024/04/02 13:58:39;;;;;;;;;;;;;;;5.98;100.00;99137.31;4826476;29;19932;-83
2024/04/02 14:01:05;;;;;;;;;;;;;;;6.07;100.00;99137.91;4841915;29;20039;-84
2024/04/02 14:03:30;;;;;;;;;;;;;;;6.05;100.00;99131.81;4841179;29;19929;-83
2024/04/02 14:06:00;;;;;;;;;;;;;;;5.99;100.00;99125.88;4842559;29;19934;-85
2024/04/02 14:08:28;;;;;;;;;;;;;;;6.02;100.00;99121.44;4842672;29;19923;-85
2024/04/02 14:10:53;;;;;;;;;;;;;;;5.98;100.00;99111.00;4826069;29;19960;-85
2024/04/02 14:13:20;;;;;;;;;;;;;;;6.03;100.00;99115.22;4825373;29;20352;-84
2024/04/02 14:15:45;;;;;;;;;;;;;;;6.05;100.00;99119.53;4840847;29;19924;-84
2024/04/02 14:18:11;;;;;;;;;;;;;;;6.06;100.00;99107.25;4842654;29;20019;-84
2024/04/02 14:20:36;;;;;;;;;;;;;;;6.00;100.00;99117.06;4842261;29;20350;-83
2024/04/02 14:23:02;;;;;;;;;;;;;;;6.13;100.00;99106.13;4841181;29;19947;-84
2024/04/02 14:25:27;;;;;;;;;;;;;;;6.17;100.00;99110.34;4841767;29;19928;-88
2024/04/02 14:27:53;;;;;;;;;;;;;;;6.18;100.00;99110.28;4842303;29;20289;-83
2024/04/02 14:30:18;;;;;;;;;;;;;;;6.14;100.00;99110.44;4842213;29;20050;-82
2024/04/02 14:32:43;;;;;;;;;;;;;;;6.14;100.00;99108.69;4839525;29;20019;-84
2024/04/02 14:35:09;;;;;;;;;;;;;;;6.09;100.00;99091.34;4842295;29;19920;-83
2024/04/02 14:37:34;;;;;;;;;;;;;;;6.16;100.00;99096.34;4842363;29;19931;-87
2024/04/02 14:39:59;;;;;;;;;;;;;;;6.13;100.00;99098.25;4842172;29;20297;-85
2024/04/02 14:42:24;;;;;;;;;;;;;;;6.12;100.00;99096.50;4842472;29;19924;-84
2024/04/02 14:44:53;;;;;;;;;;;;;;;6.08;100.00;99097.50;4842160;29;20421;-84
2024/04/02 14:47:19;;;;;;;;;;;;;;;6.10;100.00;99087.81;4840718;29;19931;-83
2024/04/02 14:49:46;;;;;;;;;;;;;;;6.16;100.00;99087.59;4841803;29;19929;-84
2024/04/02 14:52:12;;;;;;;;;;;;;;;6.21;100.00;99085.66;4840182;29;20057;-85
2024/04/02 14:54:37;;;;;;;;;;;;;;;6.20;100.00;99096.25;4841497;29;20019;-89
2024/04/02 14:57:02;;;;;;;;;;;;;;;6.23;100.00;99090.88;4841955;29;19925;-83
2024/04/02 14:59:28;;;;;;;;;;;;;;;6.25;100.00;99089.03;4841621;29;19925;-83
2024/04/02 15:01:55;;;;;;;;;;;;;;;6.23;100.00;99101.38;4839877;29;19924;-85
2024/04/02 15:04:20;;;;;;;;;;;;;;;6.23;100.00;99082.97;4834178;29;20011;-83
2024/04/02 15:06:47;;;;;;;;;;;;;;;6.19;100.00;99095.38;4822466;29;20009;-84
2024/04/02 15:09:13;;;;;;;;;;;;;;;6.17;100.00;99102.47;4822128;29;20392;-84
2024/04/02 15:11:38;;;;;;;;;;;;;;;6.17;100.00;99091.94;4806794;29;20015;-83
2024/04/02 15:14:04;;;;;;;;;;;;;;;6.16;100.00;99092.88;4823648;29;19955;-83
2024/04/02 15:16:29;;;;;;;;;;;;;;;6.13;100.00;99095.59;4822296;29;19983;-84
2024/04/02 15:18:54;;;;;;;;;;;;;;;6.20;100.00;99093.59;4823523;29;20055;-83
2024/04/02 15:21:20;;;;;;;;;;;;;;;6.19;100.00;99084.88;4823519;29;20007;-86
2024/04/02 15:23:45;;;;;;;;;;;;;;;6.16;100.00;99091.09;4823553;29;19921;-87
2024/04/02 15:26:10;;;;;;;;;;;;;;;6.19;100.00;99087.50;4823382;29;20376;-83
2024/04/02 15:28:35;;;;;;;;;;;;;;;6.09;100.00;99093.97;4822187;29;19947;-84
2024/04/02 15:31:01;;;;;;;;;;;;;;;6.13;100.00;99085.94;4822055;29;20420;-85
2024/04/02 15:33:26;;;;;;;;;;;;;;;6.16;100.00;99090.25;4823044;29;20288;-84
2024/04/02 15:35:51;;;;;;;;;;;;;;;6.15;100.00;99086.72;4822273;29;19925;-87
2024/04/02 15:38:17;;;;;;;;;;;;;;;6.15;100.00;99076.22;4822253;29;20002;-90
2024/04/02 15:40:42;;;;;;;;;;;;;;;6.18;100.00;99080.50;4821945;29;19927;-84
2024/04/02 15:43:07;;;;;;;;;;;;;;;6.21;100.00;99080.41;4806713;29;19925;-87
2024/04/02 15:45:32;;;;;;;;;;;;;;;6.18;100.00;99091.03;4823290;29;19971;-86
2024/04/02 15:47:58;;;;;;;;;;;;;;;6.26;100.00;99083.72;4822084;29;19945;-84
2024/04/02 15:50:23;;;;;;;;;;;;;;;6.23;100.00;99086.44;4823200;29;19970;-84
2024/04/02 15:52:48;;;;;;;;;;;;;;;6.20;100.00;99085.72;4806644;29;19940;-86
2024/04/02 15:55:16;;;;;;;;;;;;;;;6.18;100.00;99085.78;4823109;29;19966;-89
2024/04/02 15:57:42;;;;;;;;;;;;;;;6.18;100.00;99077.88;4823142;29;19932;-89
2024/04/02 16:00:10;;;;;;;;;;;;;;;6.22;100.00;99082.09;4806908;29;19917;-87
2024/04/02 16:02:36;;;;;;;;;;;;;;;6.20;100.00;99083.94;4822058;29;20399;-85
2024/04/02 16:05:10;;;;;;;;;;;;;;;6.24;100.00;99080.28;4823914;29;19905;-90
2024/04/02 16:07:35;;;;;;;;;;;;;;;6.24;100.00;99080.28;4821499;29;19923;-85
2024/04/02 16:10:00;;;;;;;;;;;;;;;6.22;100.00;99084.72;4822544;29;19921;-86
2024/04/02 16:12:26;;;;;;;;;;;;;;;6.23;100.00;99091.72;4823002;29;20344;-84
2024/04/02 16:14:51;;;;;;;;;;;;;;;6.27;100.00;99082.81;4822830;29;19921;-86
2024/04/02 16:17:17;;;;;;;;;;;;;;;6.23;100.00;99083.81;4822078;29;19921;-84
2024/04/02 16:19:42;;;;;;;;;;;;;;;6.24;100.00;99085.56;4822884;29;19975;-84
2024/04/02 16:22:07;;;;;;;;;;;;;;;6.24;100.00;99080.28;4822783;29;19970;-84
2024/04/02 16:24:35;;;;;;;;;;;;;;;6.25;100.00;99073.25;4822785;29;19987;-88
2024/04/02 16:27:00;;;;;;;;;;;;;;;6.24;100.00;99088.19;4822217;29;20337;-85
2024/04/02 16:29:27;;;;;;;;;;;;;;;6.27;100.00;99079.31;4822918;29;19974;-84
2024/04/02 16:31:53;;;;;;;;;;;;;;;6.31;100.00;99071.25;4818965;29;19982;-84
2024/04/02 16:34:18;;;;;;;;;;;;;;;6.29;100.00;99075.72;4820556;29;19924;-83
2024/04/02 16:36:46;;;;;;;;;;;;;;;6.30;100.00;99077.44;4820574;29;19921;-82
2024/04/02 16:39:11;;;;;;;;;;;;;;;6.30;100.00;99080.06;4804534;29;20031;-84
2024/04/02 16:41:36;;;;;;;;;;;;;;;6.31;100.00;99079.13;4820412;29;19943;-85
2024/04/02 16:44:02;;;;;;;;;;;;;;;6.36;100.00;99076.34;4818902;29;19932;-83
2024/04/02 16:46:28;;;;;;;;;;;;;;;6.30;100.00;99074.81;4820800;29;19925;-88
2024/04/02 16:48:53;;;;;;;;;;;;;;;6.33;100.00;99072.06;4823178;29;19929;-82
2024/04/02 16:51:19;;;;;;;;;;;;;;;6.33;100.00;99069.44;4823330;29;20026;-84
2024/04/02 16:53:44;;;;;;;;;;;;;;;6.29;100.00;99077.50;4822863;29;19921;-84
2024/04/02 16:56:11;;;;;;;;;;;;;;;6.35;100.00;99078.13;4823156;29;19943;-84
2024/04/02 16:58:36;;;;;;;;;;;;;;;6.35;100.00;99082.50;4808727;29;19932;-85
2024/04/02 17:01:02;;;;;;;;;;;;;;;6.31;100.00;99079.13;4824475;29;19925;-84
2024/04/02 17:03:28;;;;;;;;;;;;;;;6.35;100.00;99086.03;4825243;29;19931;-84
2024/04/02 17:05:54;;;;;;;;;;;;;;;6.34;100.00;99086.06;4808886;29;19932;-86
2024/04/02 17:08:19;;;;;;;;;;;;;;;6.28;100.00;99099.44;4824785;29;19928;-85
2024/04/02 17:10:44;;;;;;;;;;;;;;;6.31;100.00;99091.44;4825195;29;19925;-85
2024/04/02 17:13:09;;;;;;;;;;;;;;;6.29;100.00;99095.91;4823691;29;19979;-87
2024/04/02 17:15:35;;;;;;;;;;;;;;;6.33;100.00;99100.13;4824830;29;20012;-83
2024/04/02 17:18:00;;;;;;;;;;;;;;;6.31;100.00;99102.81;4822958;29;20015;-84
2024/04/02 17:20:25;;;;;;;;;;;;;;;6.31;100.00;99115.97;4824395;29;19929;-85
2024/04/02 17:22:50;;;;;;;;;;;;;;;6.27;100.00;99119.66;4824830;29;19925;-85
2024/04/02 17:25:15;;;;;;;;;;;;;;;6.34;100.00;99118.50;4808259;29;19936;-85
2024/04/02 17:27:41;;;;;;;;;;;;;;;6.35;100.00;99111.44;4808484;29;19928;-86
2024/04/02 17:30:07;;;;;;;;;;;;;;;6.31;100.00;99123.03;4824428;29;19940;-85
2024/04/02 17:32:32;;;;;;;;;;;;;;;6.29;100.00;99124.84;4807656;29;20404;-84
2024/04/02 17:34:57;;;;;;;;;;;;;;;6.30;100.00;99126.56;4808839;29;19966;-85
2024/04/02 17:37:23;;;;;;;;;;;;;;;6.33;100.00;99123.81;4807915;29;19931;-84
2024/04/02 17:39:48;;;;;;;;;;;;;;;6.32;100.00;99124.75;4823236;29;20331;-85
2024/04/02 17:42:14;;;;;;;;;;;;;;;6.35;100.00;99108.81;4808020;29;19932;-84
2024/04/02 17:44:39;;;;;;;;;;;;;;;6.35;100.00;99107.06;4808471;29;19936;-93
2024/04/02 17:47:05;;;;;;;;;;;;;;;6.32;100.00;99101.91;4822464;29;19924;-87
2024/04/02 17:49:34;;;;;;;;;;;;;;;6.35;100.00;99106.19;4824718;29;20393;-84
2024/04/02 17:52:05;;;;;;;;;;;;;;;6.38;100.00;99113.13;4808303;29;19985;-84
2024/04/02 17:54:31;;;;;;;;;;;;;;;6.34;100.00;99117.66;4823561;29;19924;-84
2024/04/02 17:56:56;;;;;;;;;;;;;;;6.36;100.00;99107.91;4823896;29;19929;-86
2024/04/02 17:59:25;;;;;;;;;;;;;;;6.39;100.00;99110.44;4824758;29;19920;-89
2024/04/02 18:01:54;;;;;;;;;;;;;;;6.39;100.00;99114.84;4822865;29;20011;-90
2024/04/02 18:04:19;;;;;;;;;;;;;;;6.38;100.00;99123.66;4822433;29;19928;-86
2024/04/02 18:06:46;;;;;;;;;;;;;;;6.43;100.00;99129.59;4824394;29;20382;-88
2024/04/02 18:09:12;;;;;;;;;;;;;;;6.43;100.00;99132.22;4808070;29;19958;-86
2024/04/02 18:11:38;;;;;;;;;;;;;;;6.41;100.00;99124.38;4807826;29;20297;-85
2024/04/02 18:14:04;;;;;;;;;;;;;;;6.42;100.00;99130.53;4824274;29;19962;-90
2024/04/02 18:16:32;;;;;;;;;;;;;;;6.37;100.00;99128.06;4823166;29;19924;-88
2024/04/02 18:18:58;;;;;;;;;;;;;;;6.41;100.00;99128.81;4822699;29;19975;-86
2024/04/02 18:21:23;;;;;;;;;;;;;;;6.43;100.00;99132.22;4807050;29;19980;-84
2024/04/02 18:23:48;;;;;;;;;;;;;;;6.43;100.00;99124.34;4806739;29;19940;-86
2024/04/02 18:26:14;;;;;;;;;;;;;;;6.41;100.00;99128.81;4822124;29;19921;-84
2024/04/02 18:28:39;;;;;;;;;;;;;;;6.41;100.00;99134.06;4821895;29;19929;-85
2024/04/02 18:31:05;;;;;;;;;;;;;;;6.44;100.00;99126.06;4805222;29;19931;-84
2024/04/02 18:33:31;;;;;;;;;;;;;;;6.41;100.00;99129.66;4821833;29;19950;-82
2024/04/02 18:35:56;;;;;;;;;;;;;;;6.43;100.00;99126.97;4822330;29;20309;-84
2024/04/02 18:38:21;;;;;;;;;;;;;;;6.40;100.00;99135.84;4822886;29;20375;-83
2024/04/02 18:40:48;;;;;;;;;;;;;;;6.41;100.00;99131.44;4823019;29;19921;-82
2024/04/02 18:43:16;;;;;;;;;;;;;;;6.45;100.00;99139.16;4822999;29;19928;-84
2024/04/02 18:45:42;;;;;;;;;;;;;;;6.46;100.00;99135.63;4822342;29;20350;-83
2024/04/02 18:48:08;;;;;;;;;;;;;;;6.43;100.00;99137.50;4822037;29;19928;-83
2024/04/02 18:50:34;;;;;;;;;;;;;;;6.48;100.00;99143.47;4806420;29;19921;-85
2024/04/02 18:52:59;;;;;;;;;;;;;;;6.45;100.00;99130.41;4806454;29;19921;-81
2024/04/02 18:55:24;;;;;;;;;;;;;;;6.47;100.00;99128.59;4823123;29;20380;-81
2024/04/02 18:57:50;;;;;;;;;;;;;;;6.49;100.00;99126.75;4822107;29;19928;-88
2024/04/02 19:00:15;;;;;;;;;;;;;;;6.51;100.00;99140.69;4822878;29;19925;-84
2024/04/02 19:02:43;;;;;;;;;;;;;;;6.50;100.00;99133.75;4819730;29;20078;-83
2024/04/02 19:05:08;;;;;;;;;;;;;;;6.48;100.00;99140.84;4822599;29;19983;-82
2024/04/02 19:07:34;;;;;;;;;;;;;;;6.50;100.00;99144.25;4822424;29;19921;-84
2024/04/02 19:10:00;;;;;;;;;;;;;;;6.46;100.00;99138.25;4821153;29;19921;-83
2024/04/02 19:12:26;;;;;;;;;;;;;;;6.50;100.00;99131.94;4822634;29;20015;-85
2024/04/02 19:14:52;;;;;;;;;;;;;;;6.48;100.00;99135.56;4806293;29;20039;-82
2024/04/02 19:17:17;;;;;;;;;;;;;;;6.47;100.00;99131.22;4821407;29;19991;-82
2024/04/02 19:19:46;;;;;;;;;;;;;;;6.46;100.00;99138.25;4822777;29;20490;-85
2024/04/02 19:22:14;;;;;;;;;;;;;;;6.51;100.00;99130.16;4821337;29;19967;-83
2024/04/02 19:24:39;;;;;;;;;;;;;;;6.51;100.00;99125.78;4822867;29;20019;-82
2024/04/02 19:27:05;;;;;;;;;;;;;;;6.53;100.00;99129.22;4822588;29;20065;-83
2024/04/02 19:29:30;;;;;;;;;;;;;;;6.55;100.00;99129.16;4822408;29;20343;-81
2024/04/02 19:31:55;;;;;;;;;;;;;;;6.55;100.00;99127.38;4821524;29;19921;-83
2024/04/02 19:34:20;;;;;;;;;;;;;;;6.58;100.00;99121.16;4820809;29;19925;-82
2024/04/02 19:36:46;;;;;;;;;;;;;;;6.55;100.00;99121.25;4822505;29;20053;-83
2024/04/02 19:39:11;;;;;;;;;;;;;;;6.60;100.00;99118.47;4822553;29;20339;-83
2024/04/02 19:41:36;;;;;;;;;;;;;;;6.59;100.00;99122.88;4822441;29;19921;-89
2024/04/02 19:44:04;;;;;;;;;;;;;;;6.57;100.00;99111.53;4822267;29;19927;-83
2024/04/02 19:46:29;;;;;;;;;;;;;;;6.60;100.00;99119.31;4820964;29;19921;-81
2024/04/02 19:48:58;;;;;;;;;;;;;;;6.67;100.00;99115.56;4805634;29;19925;-81
2024/04/02 19:51:26;;;;;;;;;;;;;;;6.67;100.00;99115.56;4821268;29;19920;-84
2024/04/02 19:53:57;;;;;;;;;;;;;;;6.66;100.00;99110.34;4822256;29;19921;-84
2024/04/02 19:56:22;;;;;;;;;;;;;;;6.65;100.00;99114.75;4822065;29;19921;-87
2024/04/02 19:58:47;;;;;;;;;;;;;;;6.65;100.00;99113.88;4820918;29;19921;-83
2024/04/02 20:01:16;;;;;;;;;;;;;;;6.68;100.00;99111.97;4821440;29;19921;-83
2024/04/02 20:03:42;;;;;;;;;;;;;;;6.71;100.00;99105.75;4821970;29;19935;-82
2024/04/02 20:06:08;;;;;;;;;;;;;;;6.70;100.00;99110.16;4822061;29;19925;-84
2024/04/02 20:08:33;;;;;;;;;;;;;;;6.71;100.00;99106.59;4822162;29;20266;-83
2024/04/02 20:10:59;;;;;;;;;;;;;;;6.77;100.00;99105.53;4822068;29;19986;-83
2024/04/02 20:13:27;;;;;;;;;;;;;;;6.77;100.00;99107.31;4821919;29;20019;-83
2024/04/02 20:15:53;;;;;;;;;;;;;;;6.72;100.00;99097.78;4820530;29;19983;-84
2024/04/02 20:18:18;;;;;;;;;;;;;;;6.77;100.00;99094.16;4804817;29;19929;-83
2024/04/02 20:20:44;;;;;;;;;;;;;;;6.75;100.00;99091.56;4824327;29;20381;-83
2024/04/02 20:23:14;;;;;;;;;;;;;;;6.80;100.00;99099.28;4825071;29;19952;-84
2024/04/02 20:25:40;;;;;;;;;;;;;;;6.82;100.00;99098.31;4824931;29;20381;-83
2024/04/02 20:28:05;;;;;;;;;;;;;;;6.83;100.00;99091.25;4825369;29;19920;-83
2024/04/02 20:30:30;;;;;;;;;;;;;;;6.85;100.00;99086.81;4825057;29;19997;-84
2024/04/02 20:32:56;;;;;;;;;;;;;;;6.85;100.00;99098.19;4824228;29;19920;-85
2024/04/02 20:35:22;;;;;;;;;;;;;;;6.87;100.00;99090.22;4825026;29;20323;-83
2024/04/02 20:37:47;;;;;;;;;;;;;;;6.93;100.00;99086.50;4824232;29;19928;-83
2024/04/02 20:40:12;;;;;;;;;;;;;;;6.89;100.00;99083.13;4824888;29;19928;-82
2024/04/02 20:42:40;;;;;;;;;;;;;;;6.95;100.00;99090.78;4825236;29;20393;-87
2024/04/02 20:45:05;;;;;;;;;;;;;;;6.96;100.00;99083.75;4822094;29;19965;-84
2024/04/02 20:47:31;;;;;;;;;;;;;;;6.95;100.00;99080.25;4821103;29;19925;-84
2024/04/02 20:49:56;;;;;;;;;;;;;;;6.95;100.00;99074.97;4822728;29;19925;-84
2024/04/02 20:52:21;;;;;;;;;;;;;;;6.98;100.00;99076.66;4822448;29;19963;-84